createdAt,value
2018-11-11T00:00:01.133Z,7.20
2018-11-11T00:02:28.627Z,7.30
2018-11-11T00:04:56.104Z,7.30
2018-11-11T00:07:23.651Z,7.30
2018-11-11T00:09:51.149Z,7.40
2018-11-11T00:12:18.656Z,7.40
2018-11-11T00:14:46.147Z,7.40
2018-11-11T00:17:13.645Z,7.40
2018-11-11T00:19:41.148Z,7.50
2018-11-11T00:22:08.661Z,7.50
2018-11-11T00:24:36.168Z,7.50
2018-11-11T00:27:03.706Z,7.50
2018-11-11T00:29:31.192Z,7.40
2018-11-11T00:31:58.701Z,7.40
2018-11-11T00:34:26.192Z,7.40
2018-11-11T00:36:53.703Z,7.40
2018-11-11T00:39:21.194Z,7.50
2018-11-11T00:41:48.732Z,7.50
2018-11-11T00:44:16.232Z,7.50
2018-11-11T00:46:43.736Z,7.50
2018-11-11T00:49:11.210Z,7.50
2018-11-11T00:51:38.712Z,7.50
2018-11-11T00:54:06.197Z,7.50
2018-11-11T00:56:33.679Z,7.60
2018-11-11T00:59:01.157Z,7.60
2018-11-11T01:01:28.625Z,7.70
2018-11-11T01:03:56.112Z,7.60
2018-11-11T01:06:23.607Z,7.60
2018-11-11T01:08:51.096Z,7.50
2018-11-11T01:11:18.617Z,7.40
2018-11-11T01:13:46.091Z,7.20
2018-11-11T01:16:13.577Z,7.10
2018-11-11T01:18:41.170Z,7.00
2018-11-11T01:21:08.649Z,6.80
2018-11-11T01:23:36.116Z,6.70
2018-11-11T01:26:03.588Z,6.70
2018-11-11T01:28:31.080Z,6.60
2018-11-11T01:30:58.552Z,6.60
2018-11-11T01:33:26.031Z,6.50
2018-11-11T01:35:53.520Z,6.40
2018-11-11T01:38:21.001Z,6.40
2018-11-11T01:40:48.488Z,6.40
2018-11-11T01:43:15.964Z,6.40
2018-11-11T01:45:43.496Z,6.40
2018-11-11T01:48:10.961Z,6.40
2018-11-11T01:50:38.459Z,6.50
2018-11-11T01:53:05.971Z,6.50
2018-11-11T01:55:33.476Z,6.60
2018-11-11T01:58:00.997Z,6.70
2018-11-11T02:00:28.485Z,6.70
2018-11-11T02:02:55.997Z,6.70
2018-11-11T02:05:23.493Z,6.70
2018-11-11T02:07:50.996Z,6.60
2018-11-11T02:10:18.501Z,6.50
2018-11-11T02:12:46.359Z,6.40
2018-11-11T02:15:14.832Z,6.30
2018-11-11T02:17:42.371Z,6.20
2018-11-11T02:20:12.678Z,6.10
2018-11-11T02:22:40.378Z,6.00
2018-11-11T02:25:08.442Z,5.90
2018-11-11T02:27:35.931Z,5.90
2018-11-11T02:30:04.412Z,5.90
2018-11-11T02:32:31.901Z,5.90
2018-11-11T02:34:59.397Z,5.90
2018-11-11T02:37:26.921Z,5.80
2018-11-11T02:39:54.376Z,5.90
2018-11-11T02:42:21.876Z,6.00
2018-11-11T02:44:49.393Z,6.00
2018-11-11T02:47:16.877Z,6.00
2018-11-11T02:49:44.369Z,6.00
2018-11-11T02:52:11.841Z,6.00
2018-11-11T02:54:39.325Z,6.00
2018-11-11T02:57:06.796Z,6.00
2018-11-11T02:59:34.278Z,6.00
2018-11-11T03:02:01.782Z,6.00
2018-11-11T03:04:29.300Z,5.90
2018-11-11T03:06:56.764Z,5.80
2018-11-11T03:09:24.253Z,5.70
2018-11-11T03:11:51.727Z,5.70
2018-11-11T03:14:19.205Z,5.70
2018-11-11T03:16:46.712Z,5.70
2018-11-11T03:19:14.188Z,5.70
2018-11-11T03:21:41.656Z,5.70
2018-11-11T03:24:09.140Z,5.90
2018-11-11T03:26:36.613Z,6.00
2018-11-11T03:29:04.317Z,6.20
2018-11-11T03:31:31.817Z,6.20
2018-11-11T03:33:59.303Z,6.30
2018-11-11T03:36:26.780Z,6.40
2018-11-11T03:38:54.256Z,6.50
2018-11-11T03:41:21.732Z,6.50
2018-11-11T03:43:49.221Z,6.60
2018-11-11T03:46:16.700Z,6.60
2018-11-11T03:48:44.180Z,6.60
2018-11-11T03:51:11.655Z,6.70
2018-11-11T03:53:39.148Z,6.70
2018-11-11T03:56:06.651Z,6.70
2018-11-11T03:58:34.139Z,6.80
2018-11-11T04:01:01.670Z,6.80
2018-11-11T04:03:29.141Z,6.80
2018-11-11T04:05:56.616Z,6.90
2018-11-11T04:08:24.099Z,7.00
2018-11-11T04:10:51.580Z,7.00
2018-11-11T04:13:19.076Z,7.10
2018-11-11T04:15:46.546Z,7.10
2018-11-11T04:18:14.061Z,7.20
2018-11-11T04:20:41.537Z,7.20
2018-11-11T04:23:09.065Z,7.20
2018-11-11T04:25:36.524Z,7.10
2018-11-11T04:28:04.104Z,7.10
2018-11-11T04:30:31.594Z,7.20
2018-11-11T04:32:59.085Z,7.20
2018-11-11T04:35:26.564Z,7.30
2018-11-11T04:37:54.029Z,7.30
2018-11-11T04:40:21.511Z,7.40
2018-11-11T04:42:48.988Z,7.50
2018-11-11T04:45:16.524Z,7.50
2018-11-11T04:47:44.843Z,7.50
2018-11-11T04:50:13.568Z,7.60
2018-11-11T04:52:41.728Z,7.60
2018-11-11T04:55:09.908Z,7.70
2018-11-11T04:57:45.961Z,7.70
2018-11-11T05:00:14.080Z,7.80
2018-11-11T05:02:41.793Z,7.80
2018-11-11T05:05:10.601Z,7.80
2018-11-11T05:07:38.202Z,7.90
2018-11-11T05:10:06.329Z,7.90
2018-11-11T05:12:34.089Z,8.00
2018-11-11T05:15:01.577Z,8.00
2018-11-11T05:17:29.060Z,8.00
2018-11-11T05:19:56.543Z,8.00
2018-11-11T05:22:24.021Z,8.00
2018-11-11T05:24:51.492Z,8.00
2018-11-11T05:27:18.980Z,8.00
2018-11-11T05:29:46.468Z,7.90
2018-11-11T05:32:13.932Z,8.00
2018-11-11T05:34:41.424Z,8.00
2018-11-11T05:37:08.902Z,8.00
2018-11-11T05:39:36.380Z,8.00
2018-11-11T05:42:03.877Z,8.10
2018-11-11T05:44:31.373Z,8.10
2018-11-11T05:46:58.852Z,8.10
2018-11-11T05:49:26.316Z,8.10
2018-11-11T05:51:53.848Z,8.10
2018-11-11T05:54:21.344Z,8.10
2018-11-11T05:56:48.811Z,8.20
2018-11-11T05:59:16.300Z,8.10
2018-11-11T06:01:43.811Z,8.20
2018-11-11T06:04:11.296Z,8.20
2018-11-11T06:06:38.768Z,8.20
2018-11-11T06:09:08.701Z,8.20
2018-11-11T06:11:36.381Z,8.20
2018-11-11T06:14:04.225Z,8.30
2018-11-11T06:16:31.712Z,8.30
2018-11-11T06:18:59.196Z,8.30
2018-11-11T06:21:26.720Z,8.30
2018-11-11T06:23:54.183Z,8.40
2018-11-11T06:26:21.660Z,8.40
2018-11-11T06:28:49.140Z,8.50
2018-11-11T06:31:16.620Z,8.60
2018-11-11T06:33:44.104Z,8.60
2018-11-11T06:36:11.581Z,8.70
2018-11-11T06:38:39.052Z,8.80
2018-11-11T06:41:06.551Z,8.80
2018-11-11T06:43:34.030Z,8.80
2018-11-11T06:46:01.541Z,8.90
2018-11-11T06:48:29.036Z,8.90
2018-11-11T06:50:56.532Z,9.00
2018-11-11T06:53:24.027Z,9.00
2018-11-11T06:55:51.544Z,9.00
2018-11-11T06:58:19.041Z,9.10
2018-11-11T07:00:46.549Z,9.10
2018-11-11T07:03:31.545Z,9.20
2018-11-11T07:05:59.068Z,9.20
2018-11-11T07:08:26.552Z,9.30
2018-11-11T07:10:54.057Z,9.30
2018-11-11T07:13:21.553Z,9.30
2018-11-11T07:15:49.048Z,9.30
2018-11-11T07:18:16.540Z,9.30
2018-11-11T07:20:44.033Z,9.30
2018-11-11T07:23:11.527Z,9.30
2018-11-11T07:25:39.024Z,9.30
2018-11-11T07:28:06.524Z,9.40
2018-11-11T07:30:34.020Z,9.50
2018-11-11T07:33:01.517Z,9.50
2018-11-11T07:35:29.020Z,9.60
2018-11-11T07:37:56.514Z,9.70
2018-11-11T07:40:24.008Z,9.80
2018-11-11T07:42:51.492Z,9.70
2018-11-11T07:45:18.989Z,9.80
2018-11-11T07:47:46.538Z,9.70
2018-11-11T07:50:13.952Z,9.80
2018-11-11T07:52:41.412Z,9.90
2018-11-11T07:55:10.197Z,10.00
2018-11-11T07:57:37.640Z,10.00
2018-11-11T08:00:08.832Z,10.10
2018-11-11T08:02:36.311Z,10.20
2018-11-11T08:05:04.324Z,10.30
2018-11-11T08:07:31.795Z,10.50
2018-11-11T08:09:59.432Z,10.70
2018-11-11T08:12:26.908Z,10.80
2018-11-11T08:14:54.386Z,10.80
2018-11-11T08:17:21.852Z,10.90
2018-11-11T08:19:49.315Z,11.00
2018-11-11T08:22:16.796Z,11.10
2018-11-11T08:24:44.260Z,11.20
2018-11-11T08:27:11.737Z,11.20
2018-11-11T08:29:39.221Z,11.30
2018-11-11T08:32:06.732Z,11.40
2018-11-11T08:34:34.185Z,11.40
2018-11-11T08:37:01.673Z,11.50
2018-11-11T08:39:29.144Z,11.50
2018-11-11T08:41:56.615Z,11.60
2018-11-11T08:44:24.085Z,11.70
2018-11-11T08:46:51.589Z,11.80
2018-11-11T08:49:19.112Z,11.80
2018-11-11T08:51:54.113Z,11.90
2018-11-11T08:54:49.885Z,11.90
2018-11-11T08:57:37.010Z,11.90
2018-11-11T09:00:08.145Z,11.90
2018-11-11T09:02:35.653Z,11.90
2018-11-11T09:05:03.228Z,11.80
2018-11-11T09:07:30.666Z,11.70
2018-11-11T09:09:58.156Z,11.60
2018-11-11T09:12:25.651Z,11.60
2018-11-11T09:14:53.140Z,11.50
2018-11-11T09:17:20.680Z,11.60
2018-11-11T09:19:48.139Z,11.60
2018-11-11T09:22:15.652Z,11.60
2018-11-11T09:24:43.945Z,11.60
2018-11-11T09:27:11.440Z,11.60
2018-11-11T09:29:39.070Z,11.70
2018-11-11T09:32:06.468Z,12.00
2018-11-11T09:34:33.968Z,12.40
2018-11-11T09:37:01.476Z,12.70
2018-11-11T09:39:29.033Z,13.00
2018-11-11T09:41:56.520Z,13.20
2018-11-11T09:44:28.045Z,13.40
2018-11-11T09:46:55.549Z,13.60
2018-11-11T09:49:24.108Z,13.60
2018-11-11T09:52:03.559Z,13.60
2018-11-11T09:54:51.733Z,13.50
2018-11-11T09:57:20.276Z,13.40
2018-11-11T09:59:55.257Z,13.40
2018-11-11T10:02:53.210Z,13.40
2018-11-11T10:05:26.468Z,13.50
2018-11-11T10:07:58.951Z,13.50
2018-11-11T10:12:36.269Z,13.50
2018-11-11T10:17:14.013Z,13.50
2018-11-11T10:19:49.911Z,13.40
2018-11-11T10:22:23.927Z,13.20
2018-11-11T10:24:56.600Z,13.20
2018-11-11T10:27:28.877Z,13.40
2018-11-11T10:30:10.936Z,13.60
2018-11-11T10:34:00.854Z,13.80
2018-11-11T10:37:17.175Z,14.10
2018-11-11T10:39:57.526Z,14.30
2018-11-11T10:43:32.020Z,14.40
2018-11-11T10:46:35.937Z,14.40
2018-11-11T10:49:05.994Z,14.30
2018-11-11T10:51:33.665Z,14.10
2018-11-11T10:54:01.292Z,14.00
2018-11-11T10:56:28.801Z,14.00
2018-11-11T10:58:56.265Z,13.90
2018-11-11T11:01:30.124Z,13.80
2018-11-11T11:03:57.585Z,13.60
2018-11-11T11:06:31.000Z,13.50
2018-11-11T11:09:04.335Z,13.30
2018-11-11T11:11:31.812Z,13.10
2018-11-11T11:13:59.384Z,12.90
2018-11-11T11:16:26.760Z,12.80
2018-11-11T11:18:54.236Z,12.70
2018-11-11T11:21:21.712Z,12.80
2018-11-11T11:23:49.183Z,12.90
2018-11-11T11:26:16.652Z,13.10
2018-11-11T11:28:44.124Z,13.40
2018-11-11T11:31:11.613Z,13.70
2018-11-11T11:33:39.156Z,13.80
2018-11-11T11:36:06.631Z,13.80
2018-11-11T11:38:34.108Z,14.00
2018-11-11T11:41:01.603Z,14.10
2018-11-11T11:43:29.188Z,14.20
2018-11-11T11:45:56.672Z,14.30
2018-11-11T11:48:24.160Z,14.30
2018-11-11T11:50:51.625Z,14.30
2018-11-11T11:53:19.099Z,14.40
2018-11-11T11:55:46.581Z,14.60
2018-11-11T11:58:25.745Z,14.80
2018-11-11T12:00:53.230Z,15.10
2018-11-11T12:03:20.713Z,15.40
2018-11-11T12:05:48.180Z,15.50
2018-11-11T12:08:15.669Z,15.50
2018-11-11T12:10:43.210Z,15.60
2018-11-11T12:13:11.580Z,15.80
2018-11-11T12:15:39.952Z,16.10
2018-11-11T12:18:07.450Z,16.50
2018-11-11T12:20:35.481Z,16.80
2018-11-11T12:23:02.958Z,17.10
2018-11-11T12:25:30.423Z,17.30
2018-11-11T12:27:57.903Z,17.50
2018-11-11T12:30:25.648Z,17.60
2018-11-11T12:32:53.164Z,17.70
2018-11-11T12:35:20.660Z,17.70
2018-11-11T12:37:48.196Z,17.60
2018-11-11T12:40:15.806Z,17.50
2018-11-11T12:42:43.474Z,17.30
2018-11-11T12:45:11.639Z,17.20
2018-11-11T12:47:39.163Z,17.00
2018-11-11T12:50:08.412Z,16.90
2018-11-11T12:52:36.264Z,16.80
2018-11-11T12:55:03.836Z,16.70
2018-11-11T12:57:31.345Z,16.60
2018-11-11T12:59:58.852Z,16.50
2018-11-11T13:02:26.385Z,16.40
2018-11-11T13:04:54.466Z,16.30
2018-11-11T13:07:21.885Z,16.30
2018-11-11T13:09:49.405Z,16.30
2018-11-11T13:12:16.942Z,16.20
2018-11-11T13:14:44.502Z,16.10
2018-11-11T13:17:12.024Z,16.10
2018-11-11T13:19:39.583Z,16.10
2018-11-11T13:22:07.063Z,16.10
2018-11-11T13:24:34.583Z,16.10
2018-11-11T13:27:02.094Z,16.00
2018-11-11T13:29:29.596Z,16.10
2018-11-11T13:31:57.127Z,16.10
2018-11-11T13:34:24.596Z,16.10
2018-11-11T13:36:52.096Z,16.10
2018-11-11T13:39:19.616Z,16.20
2018-11-11T13:41:47.125Z,16.30
2018-11-11T13:44:14.633Z,16.30
2018-11-11T13:46:42.244Z,16.40
2018-11-11T13:49:09.627Z,16.40
2018-11-11T13:51:37.422Z,16.40
2018-11-11T13:54:05.588Z,16.40
2018-11-11T13:56:33.062Z,16.30
2018-11-11T13:59:00.574Z,16.20
2018-11-11T14:01:28.096Z,16.20
2018-11-11T14:03:55.547Z,16.20
2018-11-11T14:06:23.025Z,16.10
2018-11-11T14:08:50.524Z,16.10
2018-11-11T14:11:18.028Z,16.10
2018-11-11T14:13:45.508Z,16.20
2018-11-11T14:16:12.992Z,16.30
2018-11-11T14:18:40.613Z,16.30
2018-11-11T14:21:07.976Z,16.40
2018-11-11T14:23:35.493Z,16.40
2018-11-11T14:26:02.997Z,16.40
2018-11-11T14:28:30.470Z,16.40
2018-11-11T14:30:57.947Z,16.40
2018-11-11T14:33:25.443Z,16.30
2018-11-11T14:35:52.989Z,16.20
2018-11-11T14:38:20.442Z,16.10
2018-11-11T14:40:47.936Z,16.00
2018-11-11T14:43:15.445Z,15.90
2018-11-11T14:45:43.057Z,15.70
2018-11-11T14:48:10.689Z,15.40
2018-11-11T14:50:38.192Z,15.20
2018-11-11T14:53:05.709Z,15.00
2018-11-11T14:55:33.215Z,14.80
2018-11-11T14:58:11.350Z,14.60
2018-11-11T15:00:38.831Z,14.40
2018-11-11T15:03:10.692Z,14.10
2018-11-11T15:05:42.144Z,13.90
2018-11-11T15:08:09.699Z,13.60
2018-11-11T15:10:50.549Z,13.40
2018-11-11T15:13:18.181Z,13.10
2018-11-11T15:15:45.562Z,12.90
2018-11-11T15:18:13.044Z,12.80
2018-11-11T15:20:40.715Z,12.70
2018-11-11T15:23:08.551Z,12.60
2018-11-11T15:25:36.045Z,12.50
2018-11-11T15:28:04.398Z,12.40
2018-11-11T15:30:41.819Z,12.20
2018-11-11T15:33:09.156Z,12.10
2018-11-11T15:35:36.694Z,12.00
2018-11-11T15:38:05.033Z,12.00
2018-11-11T15:40:33.753Z,12.00
2018-11-11T15:43:01.716Z,12.00
2018-11-11T15:45:36.329Z,11.90
2018-11-11T15:48:04.303Z,11.90
2018-11-11T15:50:32.791Z,11.90
2018-11-11T15:53:01.689Z,11.80
2018-11-11T15:55:30.576Z,11.80
2018-11-11T15:57:58.103Z,11.80
2018-11-11T16:00:27.748Z,11.80
2018-11-11T16:02:55.248Z,11.80
2018-11-11T16:05:22.784Z,11.90
2018-11-11T16:07:51.056Z,11.80
2018-11-11T16:10:22.696Z,11.80
2018-11-11T16:12:50.438Z,11.80
2018-11-11T16:15:20.908Z,11.80
2018-11-11T16:17:50.696Z,11.80
2018-11-11T16:20:19.586Z,11.70
2018-11-11T16:22:48.164Z,11.70
2018-11-11T16:25:15.696Z,11.60
2018-11-11T16:27:43.904Z,11.70
2018-11-11T16:30:15.741Z,11.60
2018-11-11T16:32:43.731Z,11.50
2018-11-11T16:35:16.113Z,11.40
2018-11-11T16:37:43.620Z,11.20
2018-11-11T16:40:13.663Z,11.10
2018-11-11T16:42:41.687Z,10.90
2018-11-11T16:45:12.185Z,10.90
2018-11-11T16:47:39.693Z,10.80
2018-11-11T16:50:10.483Z,10.80
2018-11-11T16:52:38.748Z,10.90
2018-11-11T16:55:07.414Z,11.00
2018-11-11T16:57:34.972Z,11.20
2018-11-11T17:00:02.877Z,11.30
2018-11-11T17:02:30.344Z,11.30
2018-11-11T17:04:57.825Z,11.30
2018-11-11T17:07:25.304Z,11.20
2018-11-11T17:09:59.825Z,11.10
2018-11-11T17:12:27.300Z,11.10
2018-11-11T17:14:54.807Z,11.00
2018-11-11T17:17:22.276Z,10.90
2018-11-11T17:19:49.764Z,10.80
2018-11-11T17:22:17.362Z,10.70
2018-11-11T17:24:44.745Z,10.60
2018-11-11T17:27:12.227Z,10.50
2018-11-11T17:29:39.715Z,10.40
2018-11-11T17:32:13.943Z,10.40
2018-11-11T17:34:41.314Z,10.30
2018-11-11T17:37:08.785Z,10.30
2018-11-11T17:39:36.272Z,10.30
2018-11-11T17:42:03.845Z,10.30
2018-11-11T17:44:31.320Z,10.30
2018-11-11T17:46:58.840Z,10.30
2018-11-11T17:49:26.337Z,10.30
2018-11-11T17:51:53.828Z,10.30
2018-11-11T17:54:21.327Z,10.40
2018-11-11T17:56:48.829Z,10.40
2018-11-11T17:59:16.331Z,10.40
2018-11-11T18:01:43.869Z,10.40
2018-11-11T18:04:11.369Z,10.40
2018-11-11T18:06:38.921Z,10.40
2018-11-11T18:09:08.072Z,10.40
2018-11-11T18:11:35.566Z,10.40
2018-11-11T18:14:03.139Z,10.40
2018-11-11T18:16:30.563Z,10.40
2018-11-11T18:18:58.061Z,10.40
2018-11-11T18:21:25.549Z,10.40
2018-11-11T18:23:53.042Z,10.40
2018-11-11T18:26:20.604Z,10.40
2018-11-11T18:28:48.040Z,10.30
2018-11-11T18:31:15.556Z,10.30
2018-11-11T18:33:43.044Z,10.20
2018-11-11T18:36:27.493Z,10.20
2018-11-11T18:38:55.110Z,10.20
2018-11-11T18:41:42.626Z,10.20
2018-11-11T18:44:10.141Z,10.20
2018-11-11T18:46:44.260Z,10.10
2018-11-11T18:49:11.734Z,10.10
2018-11-11T18:51:39.220Z,10.10
2018-11-11T18:54:06.705Z,10.00
2018-11-11T18:56:55.508Z,10.00
2018-11-11T18:59:22.948Z,10.00
2018-11-11T19:01:50.434Z,10.00
2018-11-11T19:04:17.901Z,10.00
2018-11-11T19:06:45.387Z,10.00
2018-11-11T19:09:13.727Z,10.00
2018-11-11T19:11:41.184Z,10.00
2018-11-11T19:14:08.756Z,10.00
2018-11-11T19:16:36.446Z,10.00
2018-11-11T19:19:04.749Z,10.00
2018-11-11T19:21:32.228Z,10.00
2018-11-11T19:23:59.737Z,10.00
2018-11-11T19:26:37.372Z,10.00
2018-11-11T19:29:04.967Z,10.00
2018-11-11T19:31:32.453Z,9.90
2018-11-11T19:33:59.928Z,9.90
2018-11-11T19:36:27.431Z,9.90
2018-11-11T19:38:54.899Z,9.90
2018-11-11T19:41:22.396Z,9.90
2018-11-11T19:43:49.852Z,9.90
2018-11-11T19:46:17.424Z,9.90
2018-11-11T19:49:05.144Z,10.00
2018-11-11T19:51:32.674Z,10.00
2018-11-11T19:54:00.394Z,9.90
2018-11-11T19:56:27.937Z,9.90
2018-11-11T19:58:55.516Z,9.90
2018-11-11T20:01:23.041Z,9.90
2018-11-11T20:03:51.172Z,10.00
2018-11-11T20:06:18.683Z,10.00
2018-11-11T20:08:46.184Z,10.00
2018-11-11T20:11:13.718Z,10.00
2018-11-11T20:13:41.260Z,10.00
2018-11-11T20:16:08.764Z,10.00
2018-11-11T20:18:36.256Z,9.90
2018-11-11T20:21:03.835Z,9.90
2018-11-11T20:23:31.325Z,9.90
2018-11-11T20:25:58.819Z,9.90
2018-11-11T20:28:26.316Z,9.90
2018-11-11T20:30:53.825Z,9.90
2018-11-11T20:33:21.312Z,10.00
2018-11-11T20:35:48.814Z,10.00
2018-11-11T20:38:16.323Z,10.00
2018-11-11T20:40:43.813Z,10.00
2018-11-11T20:43:11.325Z,10.00
2018-11-11T20:45:38.797Z,10.00
2018-11-11T20:48:06.287Z,10.10
2018-11-11T20:50:34.792Z,10.10
2018-11-11T20:53:03.676Z,10.10
2018-11-11T20:55:31.231Z,10.10
2018-11-11T20:57:58.924Z,10.10
2018-11-11T21:00:31.671Z,10.10
2018-11-11T21:02:59.164Z,9.90
2018-11-11T21:05:27.271Z,9.80
2018-11-11T21:07:54.878Z,9.60
2018-11-11T21:10:23.598Z,9.50
2018-11-11T21:12:51.223Z,9.40
2018-11-11T21:15:19.995Z,9.30
2018-11-11T21:17:47.783Z,9.20
2018-11-11T21:20:16.669Z,9.10
2018-11-11T21:22:44.168Z,9.00
2018-11-11T21:25:11.987Z,9.00
2018-11-11T21:27:40.365Z,8.90
2018-11-11T21:30:11.075Z,8.90
2018-11-11T21:32:38.682Z,8.80
2018-11-11T21:35:06.459Z,8.80
2018-11-11T21:37:33.940Z,8.70
2018-11-11T21:40:01.461Z,8.80
2018-11-11T21:42:29.110Z,8.90
2018-11-11T21:44:56.589Z,9.10
2018-11-11T21:47:24.096Z,9.20
2018-11-11T21:49:51.609Z,9.30
2018-11-11T21:52:19.105Z,9.40
2018-11-11T21:54:46.810Z,9.40
2018-11-11T21:57:14.122Z,9.50
2018-11-11T21:59:41.600Z,9.50
2018-11-11T22:02:09.171Z,9.60
2018-11-11T22:04:36.633Z,9.70
2018-11-11T22:07:04.428Z,9.80
2018-11-11T22:09:31.960Z,9.80
2018-11-11T22:11:59.441Z,9.90
2018-11-11T22:14:26.932Z,9.90
2018-11-11T22:16:54.459Z,10.00
2018-11-11T22:19:21.928Z,10.10
2018-11-11T22:21:49.451Z,10.20
2018-11-11T22:24:16.948Z,10.20
2018-11-11T22:26:44.476Z,10.20
2018-11-11T22:29:11.969Z,10.10
2018-11-11T22:31:39.448Z,10.10
2018-11-11T22:34:13.144Z,10.10
2018-11-11T22:36:40.648Z,10.10
2018-11-11T22:39:09.331Z,10.00
2018-11-11T22:41:37.194Z,10.00
2018-11-11T22:44:05.029Z,10.00
2018-11-11T22:46:32.525Z,10.00
2018-11-11T22:49:00.040Z,10.00
2018-11-11T22:51:27.512Z,9.90
2018-11-11T22:54:14.636Z,9.90
2018-11-11T22:56:42.114Z,9.80
2018-11-11T22:59:09.597Z,9.80
2018-11-11T23:01:37.064Z,9.80
2018-11-11T23:04:07.892Z,9.80
2018-11-11T23:07:01.089Z,9.90
2018-11-11T23:09:28.575Z,10.00
2018-11-11T23:11:56.060Z,10.10
2018-11-11T23:14:23.553Z,10.20
2018-11-11T23:16:51.032Z,10.20
2018-11-11T23:19:18.524Z,10.20
2018-11-11T23:21:46.004Z,10.30
2018-11-11T23:24:13.468Z,10.30
2018-11-11T23:26:40.959Z,10.30
2018-11-11T23:29:08.449Z,10.20
2018-11-11T23:31:35.908Z,10.30
2018-11-11T23:34:03.392Z,10.30
2018-11-11T23:36:30.865Z,10.30
2018-11-11T23:38:58.360Z,10.40
2018-11-11T23:41:25.836Z,10.30
2018-11-11T23:43:53.322Z,10.20
2018-11-11T23:46:20.799Z,10.20
2018-11-11T23:48:48.287Z,10.20
2018-11-11T23:51:15.812Z,10.10
2018-11-11T23:53:43.288Z,10.00
2018-11-11T23:56:10.780Z,9.90
2018-11-11T23:58:38.272Z,9.90
